sensor_id;sensor_type;location;lat;lon;timestamp;pressure;altitude;pressure_sealevel;temperature
18782;BMP180;9519;51.890;8.970;2023-08-17T00:02:19;99796.00;;;18.50
18782;BMP180;9519;51.890;8.970;2023-08-17T00:07:21;99789.00;;;18.40
18782;BMP180;9519;51.890;8.970;2023-08-17T00:12:23;99788.00;;;18.40
18782;BMP180;9519;51.890;8.970;2023-08-17T00:17:27;99788.00;;;18.40
18782;BMP180;9519;51.890;8.970;2023-08-17T00:22:31;99775.00;;;18.30
18782;BMP180;9519;51.890;8.970;2023-08-17T00:27:33;99762.00;;;18.20
18782;BMP180;9519;51.890;8.970;2023-08-17T00:32:36;99759.00;;;18.10
18782;BMP180;9519;51.890;8.970;2023-08-17T00:37:38;99759.00;;;18.00
18782;BMP180;9519;51.890;8.970;2023-08-17T00:42:40;99760.00;;;17.90
18782;BMP180;9519;51.890;8.970;2023-08-17T00:47:44;99749.00;;;17.80
18782;BMP180;9519;51.890;8.970;2023-08-17T00:52:46;99748.00;;;17.70
18782;BMP180;9519;51.890;8.970;2023-08-17T00:57:49;99739.00;;;17.70
18782;BMP180;9519;51.890;8.970;2023-08-17T01:02:54;99734.00;;;17.70
18782;BMP180;9519;51.890;8.970;2023-08-17T01:07:56;99737.00;;;17.60
18782;BMP180;9519;51.890;8.970;2023-08-17T01:13:09;99750.00;;;17.60
18782;BMP180;9519;51.890;8.970;2023-08-17T01:18:24;99755.00;;;17.60
18782;BMP180;9519;51.890;8.970;2023-08-17T01:23:28;99748.00;;;17.50
18782;BMP180;9519;51.890;8.970;2023-08-17T01:28:31;99764.00;;;17.40
18782;BMP180;9519;51.890;8.970;2023-08-17T01:33:39;99761.00;;;17.40
18782;BMP180;9519;51.890;8.970;2023-08-17T01:38:45;99758.00;;;17.30
18782;BMP180;9519;51.890;8.970;2023-08-17T01:43:49;99746.00;;;17.30
18782;BMP180;9519;51.890;8.970;2023-08-17T01:48:52;99751.00;;;17.30
18782;BMP180;9519;51.890;8.970;2023-08-17T01:53:55;99751.00;;;17.30
18782;BMP180;9519;51.890;8.970;2023-08-17T01:58:57;99746.00;;;17.30
18782;BMP180;9519;51.890;8.970;2023-08-17T02:04:01;99735.00;;;17.40
18782;BMP180;9519;51.890;8.970;2023-08-17T02:09:05;99725.00;;;17.40
18782;BMP180;9519;51.890;8.970;2023-08-17T02:14:10;99719.00;;;17.40
18782;BMP180;9519;51.890;8.970;2023-08-17T02:19:12;99729.00;;;17.50
18782;BMP180;9519;51.890;8.970;2023-08-17T02:24:15;99727.00;;;17.40
18782;BMP180;9519;51.890;8.970;2023-08-17T02:29:17;99733.00;;;17.30
18782;BMP180;9519;51.890;8.970;2023-08-17T02:34:19;99724.00;;;17.20
18782;BMP180;9519;51.890;8.970;2023-08-17T02:39:23;99721.00;;;17.10
18782;BMP180;9519;51.890;8.970;2023-08-17T02:44:25;99715.00;;;17.00
18782;BMP180;9519;51.890;8.970;2023-08-17T02:49:29;99704.00;;;16.90
18782;BMP180;9519;51.890;8.970;2023-08-17T02:54:34;99697.00;;;16.80
18782;BMP180;9519;51.890;8.970;2023-08-17T02:59:36;99702.00;;;16.70
18782;BMP180;9519;51.890;8.970;2023-08-17T03:04:39;99706.00;;;16.70
18782;BMP180;9519;51.890;8.970;2023-08-17T03:09:43;99699.00;;;16.70
18782;BMP180;9519;51.890;8.970;2023-08-17T03:14:45;99702.00;;;16.70
18782;BMP180;9519;51.890;8.970;2023-08-17T03:19:47;99696.00;;;16.70
18782;BMP180;9519;51.890;8.970;2023-08-17T03:24:50;99696.00;;;16.70
18782;BMP180;9519;51.890;8.970;2023-08-17T03:29:52;99696.00;;;16.70
18782;BMP180;9519;51.890;8.970;2023-08-17T03:34:54;99693.00;;;16.70
18782;BMP180;9519;51.890;8.970;2023-08-17T03:39:57;99688.00;;;16.60
18782;BMP180;9519;51.890;8.970;2023-08-17T03:45:01;99681.00;;;16.60
18782;BMP180;9519;51.890;8.970;2023-08-17T03:50:05;99685.00;;;16.60
18782;BMP180;9519;51.890;8.970;2023-08-17T03:55:09;99682.00;;;16.70
18782;BMP180;9519;51.890;8.970;2023-08-17T04:00:12;99671.00;;;16.70
18782;BMP180;9519;51.890;8.970;2023-08-17T04:05:14;99664.00;;;16.80
18782;BMP180;9519;51.890;8.970;2023-08-17T04:10:18;99659.00;;;16.90
18782;BMP180;9519;51.890;8.970;2023-08-17T04:15:20;99656.00;;;16.90
18782;BMP180;9519;51.890;8.970;2023-08-17T04:20:22;99644.00;;;16.90
18782;BMP180;9519;51.890;8.970;2023-08-17T04:25:27;99645.00;;;17.00
18782;BMP180;9519;51.890;8.970;2023-08-17T04:30:32;99647.00;;;17.00
18782;BMP180;9519;51.890;8.970;2023-08-17T04:35:34;99658.00;;;17.00
18782;BMP180;9519;51.890;8.970;2023-08-17T04:40:38;99671.00;;;17.00
18782;BMP180;9519;51.890;8.970;2023-08-17T04:45:40;99666.00;;;17.10
18782;BMP180;9519;51.890;8.970;2023-08-17T04:50:42;99674.00;;;17.10
18782;BMP180;9519;51.890;8.970;2023-08-17T04:55:45;99665.00;;;17.10
18782;BMP180;9519;51.890;8.970;2023-08-17T05:00:47;99678.00;;;17.00
18782;BMP180;9519;51.890;8.970;2023-08-17T05:05:51;99687.00;;;16.90
18782;BMP180;9519;51.890;8.970;2023-08-17T05:10:56;99679.00;;;16.90
18782;BMP180;9519;51.890;8.970;2023-08-17T05:15:58;99681.00;;;16.90
18782;BMP180;9519;51.890;8.970;2023-08-17T05:21:00;99680.00;;;16.80
18782;BMP180;9519;51.890;8.970;2023-08-17T05:26:03;99677.00;;;16.90
18782;BMP180;9519;51.890;8.970;2023-08-17T05:31:06;99668.00;;;16.90
18782;BMP180;9519;51.890;8.970;2023-08-17T05:36:08;99673.00;;;17.00
18782;BMP180;9519;51.890;8.970;2023-08-17T05:41:12;99676.00;;;17.00
18782;BMP180;9519;51.890;8.970;2023-08-17T05:46:14;99676.00;;;17.00
18782;BMP180;9519;51.890;8.970;2023-08-17T05:51:16;99680.00;;;16.90
18782;BMP180;9519;51.890;8.970;2023-08-17T05:56:19;99680.00;;;16.80
18782;BMP180;9519;51.890;8.970;2023-08-17T06:01:21;99687.00;;;16.70
18782;BMP180;9519;51.890;8.970;2023-08-17T06:06:23;99694.00;;;16.70
18782;BMP180;9519;51.890;8.970;2023-08-17T06:11:28;99708.00;;;16.60
18782;BMP180;9519;51.890;8.970;2023-08-17T06:16:30;99709.00;;;16.60
18782;BMP180;9519;51.890;8.970;2023-08-17T06:21:32;99715.00;;;16.50
18782;BMP180;9519;51.890;8.970;2023-08-17T06:26:35;99705.00;;;16.40
18782;BMP180;9519;51.890;8.970;2023-08-17T06:31:38;99707.00;;;16.40
18782;BMP180;9519;51.890;8.970;2023-08-17T06:36:40;99693.00;;;16.40
18782;BMP180;9519;51.890;8.970;2023-08-17T06:41:43;99690.00;;;16.40
18782;BMP180;9519;51.890;8.970;2023-08-17T06:46:45;99686.00;;;16.50
18782;BMP180;9519;51.890;8.970;2023-08-17T06:51:48;99687.00;;;16.50
18782;BMP180;9519;51.890;8.970;2023-08-17T06:56:54;99682.00;;;16.60
18782;BMP180;9519;51.890;8.970;2023-08-17T07:01:56;99684.00;;;16.70
18782;BMP180;9519;51.890;8.970;2023-08-17T07:07:01;99675.00;;;16.80
18782;BMP180;9519;51.890;8.970;2023-08-17T07:12:05;99679.00;;;16.90
18782;BMP180;9519;51.890;8.970;2023-08-17T07:17:07;99682.00;;;17.00
18782;BMP180;9519;51.890;8.970;2023-08-17T07:22:09;99680.00;;;17.10
18782;BMP180;9519;51.890;8.970;2023-08-17T07:27:13;99675.00;;;17.10
18782;BMP180;9519;51.890;8.970;2023-08-17T07:32:15;99694.00;;;17.20
18782;BMP180;9519;51.890;8.970;2023-08-17T07:37:17;99693.00;;;17.20
18782;BMP180;9519;51.890;8.970;2023-08-17T07:42:20;99690.00;;;17.20
18782;BMP180;9519;51.890;8.970;2023-08-17T07:47:22;99679.00;;;17.30
18782;BMP180;9519;51.890;8.970;2023-08-17T07:52:24;99683.00;;;17.40
18782;BMP180;9519;51.890;8.970;2023-08-17T07:57:27;99672.00;;;17.50
18782;BMP180;9519;51.890;8.970;2023-08-17T08:02:29;99686.00;;;17.60
18782;BMP180;9519;51.890;8.970;2023-08-17T08:07:32;99688.00;;;17.70
18782;BMP180;9519;51.890;8.970;2023-08-17T08:12:35;99700.00;;;17.80
18782;BMP180;9519;51.890;8.970;2023-08-17T08:17:37;99702.00;;;17.90
18782;BMP180;9519;51.890;8.970;2023-08-17T08:22:39;99704.00;;;17.90
18782;BMP180;9519;51.890;8.970;2023-08-17T08:27:42;99706.00;;;17.80
18782;BMP180;9519;51.890;8.970;2023-08-17T08:32:44;99700.00;;;17.80
18782;BMP180;9519;51.890;8.970;2023-08-17T08:37:46;99706.00;;;17.70
18782;BMP180;9519;51.890;8.970;2023-08-17T08:42:50;99696.00;;;17.70
18782;BMP180;9519;51.890;8.970;2023-08-17T08:47:53;99699.00;;;17.70
18782;BMP180;9519;51.890;8.970;2023-08-17T08:52:59;99693.00;;;17.80
18782;BMP180;9519;51.890;8.970;2023-08-17T08:58:04;99698.00;;;17.80
18782;BMP180;9519;51.890;8.970;2023-08-17T09:03:08;99691.00;;;17.80
18782;BMP180;9519;51.890;8.970;2023-08-17T09:08:12;99686.00;;;17.80
18782;BMP180;9519;51.890;8.970;2023-08-17T09:13:16;99681.00;;;17.80
18782;BMP180;9519;51.890;8.970;2023-08-17T09:18:19;99679.00;;;17.90
18782;BMP180;9519;51.890;8.970;2023-08-17T09:23:21;99681.00;;;18.00
18782;BMP180;9519;51.890;8.970;2023-08-17T09:28:26;99691.00;;;18.00
18782;BMP180;9519;51.890;8.970;2023-08-17T09:33:30;99677.00;;;18.10
18782;BMP180;9519;51.890;8.970;2023-08-17T09:38:32;99685.00;;;18.30
18782;BMP180;9519;51.890;8.970;2023-08-17T09:43:38;99684.00;;;18.30
18782;BMP180;9519;51.890;8.970;2023-08-17T09:48:43;99680.00;;;18.40
18782;BMP180;9519;51.890;8.970;2023-08-17T09:53:51;99668.00;;;18.50
18782;BMP180;9519;51.890;8.970;2023-08-17T09:58:55;99673.00;;;18.60
18782;BMP180;9519;51.890;8.970;2023-08-17T10:03:59;99666.00;;;18.70
18782;BMP180;9519;51.890;8.970;2023-08-17T10:09:02;99669.00;;;18.70
18782;BMP180;9519;51.890;8.970;2023-08-17T10:14:13;99665.00;;;18.80
18782;BMP180;9519;51.890;8.970;2023-08-17T10:19:24;99669.00;;;19.00
18782;BMP180;9519;51.890;8.970;2023-08-17T10:24:28;99669.00;;;19.10
18782;BMP180;9519;51.890;8.970;2023-08-17T10:29:33;99658.00;;;19.20
18782;BMP180;9519;51.890;8.970;2023-08-17T10:34:37;99657.00;;;19.20
18782;BMP180;9519;51.890;8.970;2023-08-17T10:39:45;99660.00;;;19.30
18782;BMP180;9519;51.890;8.970;2023-08-17T10:44:49;99664.00;;;19.40
18782;BMP180;9519;51.890;8.970;2023-08-17T10:49:55;99672.00;;;19.50
18782;BMP180;9519;51.890;8.970;2023-08-17T10:55:00;99667.00;;;19.60
18782;BMP180;9519;51.890;8.970;2023-08-17T11:00:15;99676.00;;;19.70
18782;BMP180;9519;51.890;8.970;2023-08-17T11:05:35;99682.00;;;19.70
18782;BMP180;9519;51.890;8.970;2023-08-17T11:10:38;99690.00;;;19.60
18782;BMP180;9519;51.890;8.970;2023-08-17T11:15:42;99693.00;;;19.50
18782;BMP180;9519;51.890;8.970;2023-08-17T11:20:45;99712.00;;;19.30
18782;BMP180;9519;51.890;8.970;2023-08-17T11:25:49;99713.00;;;19.20
18782;BMP180;9519;51.890;8.970;2023-08-17T11:30:58;99720.00;;;19.10
18782;BMP180;9519;51.890;8.970;2023-08-17T11:36:03;99708.00;;;19.00
18782;BMP180;9519;51.890;8.970;2023-08-17T11:41:06;99723.00;;;18.90
18782;BMP180;9519;51.890;8.970;2023-08-17T11:46:11;99710.00;;;18.80
18782;BMP180;9519;51.890;8.970;2023-08-17T11:51:13;99717.00;;;18.80
18782;BMP180;9519;51.890;8.970;2023-08-17T11:56:15;99701.00;;;18.80
18782;BMP180;9519;51.890;8.970;2023-08-17T12:01:19;99699.00;;;18.90
18782;BMP180;9519;51.890;8.970;2023-08-17T12:06:21;99695.00;;;19.00
18782;BMP180;9519;51.890;8.970;2023-08-17T12:11:24;99696.00;;;19.00
18782;BMP180;9519;51.890;8.970;2023-08-17T12:16:28;99703.00;;;19.10
18782;BMP180;9519;51.890;8.970;2023-08-17T12:21:30;99696.00;;;19.10
18782;BMP180;9519;51.890;8.970;2023-08-17T12:26:32;99695.00;;;19.10
18782;BMP180;9519;51.890;8.970;2023-08-17T12:31:38;99688.00;;;19.10
18782;BMP180;9519;51.890;8.970;2023-08-17T12:36:43;99706.00;;;19.20
18782;BMP180;9519;51.890;8.970;2023-08-17T12:41:46;99692.00;;;19.30
18782;BMP180;9519;51.890;8.970;2023-08-17T12:46:49;99700.00;;;19.30
18782;BMP180;9519;51.890;8.970;2023-08-17T12:51:53;99686.00;;;19.30
18782;BMP180;9519;51.890;8.970;2023-08-17T12:56:55;99681.00;;;19.30
18782;BMP180;9519;51.890;8.970;2023-08-17T13:02:01;99687.00;;;19.30
18782;BMP180;9519;51.890;8.970;2023-08-17T13:07:03;99680.00;;;19.40
18782;BMP180;9519;51.890;8.970;2023-08-17T13:12:06;99665.00;;;19.50
18782;BMP180;9519;51.890;8.970;2023-08-17T13:17:09;99675.00;;;19.50
18782;BMP180;9519;51.890;8.970;2023-08-17T13:22:11;99674.00;;;19.60
18782;BMP180;9519;51.890;8.970;2023-08-17T13:27:13;99684.00;;;19.60
18782;BMP180;9519;51.890;8.970;2023-08-17T13:32:17;99692.00;;;19.60
18782;BMP180;9519;51.890;8.970;2023-08-17T13:37:19;99695.00;;;19.60
18782;BMP180;9519;51.890;8.970;2023-08-17T13:42:21;99697.00;;;19.40
18782;BMP180;9519;51.890;8.970;2023-08-17T13:47:25;99705.00;;;19.30
18782;BMP180;9519;51.890;8.970;2023-08-17T13:52:27;99701.00;;;19.20
18782;BMP180;9519;51.890;8.970;2023-08-17T13:57:29;99701.00;;;19.00
18782;BMP180;9519;51.890;8.970;2023-08-17T14:02:32;99686.00;;;19.00
18782;BMP180;9519;51.890;8.970;2023-08-17T14:07:34;99687.00;;;19.00
18782;BMP180;9519;51.890;8.970;2023-08-17T14:12:36;99690.00;;;19.10
18782;BMP180;9519;51.890;8.970;2023-08-17T14:17:40;99686.00;;;19.10
18782;BMP180;9519;51.890;8.970;2023-08-17T14:22:42;99689.00;;;19.10
18782;BMP180;9519;51.890;8.970;2023-08-17T14:27:44;99694.00;;;19.10
18782;BMP180;9519;51.890;8.970;2023-08-17T14:32:47;99692.00;;;19.00
18782;BMP180;9519;51.890;8.970;2023-08-17T14:37:49;99689.00;;;18.90
18782;BMP180;9519;51.890;8.970;2023-08-17T14:42:51;99692.00;;;18.80
18782;BMP180;9519;51.890;8.970;2023-08-17T14:47:55;99703.00;;;18.70
18782;BMP180;9519;51.890;8.970;2023-08-17T14:52:58;99705.00;;;18.70
18782;BMP180;9519;51.890;8.970;2023-08-17T14:58:03;99706.00;;;18.80
18782;BMP180;9519;51.890;8.970;2023-08-17T15:03:07;99701.00;;;18.80
18782;BMP180;9519;51.890;8.970;2023-08-17T15:08:09;99695.00;;;18.80
18782;BMP180;9519;51.890;8.970;2023-08-17T15:13:11;99688.00;;;18.70
18782;BMP180;9519;51.890;8.970;2023-08-17T15:18:16;99691.00;;;18.70
18782;BMP180;9519;51.890;8.970;2023-08-17T15:23:18;99689.00;;;18.60
18782;BMP180;9519;51.890;8.970;2023-08-17T15:28:20;99687.00;;;18.60
18782;BMP180;9519;51.890;8.970;2023-08-17T15:33:23;99681.00;;;18.50
18782;BMP180;9519;51.890;8.970;2023-08-17T15:38:25;99684.00;;;18.50
18782;BMP180;9519;51.890;8.970;2023-08-17T15:43:27;99685.00;;;18.40
18782;BMP180;9519;51.890;8.970;2023-08-17T15:48:31;99677.00;;;18.30
18782;BMP180;9519;51.890;8.970;2023-08-17T15:53:33;99683.00;;;18.20
18782;BMP180;9519;51.890;8.970;2023-08-17T15:58:40;99683.00;;;18.00
18782;BMP180;9519;51.890;8.970;2023-08-17T16:03:44;99676.00;;;18.00
18782;BMP180;9519;51.890;8.970;2023-08-17T16:08:49;99673.00;;;18.00
18782;BMP180;9519;51.890;8.970;2023-08-17T16:13:52;99665.00;;;18.00
18782;BMP180;9519;51.890;8.970;2023-08-17T16:18:57;99668.00;;;18.10
18782;BMP180;9519;51.890;8.970;2023-08-17T16:23:59;99662.00;;;18.10
18782;BMP180;9519;51.890;8.970;2023-08-17T16:29:01;99675.00;;;18.10
18782;BMP180;9519;51.890;8.970;2023-08-17T16:34:04;99674.00;;;18.10
18782;BMP180;9519;51.890;8.970;2023-08-17T16:39:06;99671.00;;;18.00
18782;BMP180;9519;51.890;8.970;2023-08-17T16:44:08;99681.00;;;18.00
18782;BMP180;9519;51.890;8.970;2023-08-17T16:49:12;99685.00;;;17.90
18782;BMP180;9519;51.890;8.970;2023-08-17T16:54:14;99686.00;;;17.90
18782;BMP180;9519;51.890;8.970;2023-08-17T16:59:16;99692.00;;;17.90
18782;BMP180;9519;51.890;8.970;2023-08-17T17:04:19;99701.00;;;17.90
18782;BMP180;9519;51.890;8.970;2023-08-17T17:09:21;99704.00;;;17.90
18782;BMP180;9519;51.890;8.970;2023-08-17T17:14:23;99688.00;;;17.90
18782;BMP180;9519;51.890;8.970;2023-08-17T17:19:27;99703.00;;;17.80
18782;BMP180;9519;51.890;8.970;2023-08-17T17:24:29;99696.00;;;17.80
18782;BMP180;9519;51.890;8.970;2023-08-17T17:29:32;99697.00;;;17.80
18782;BMP180;9519;51.890;8.970;2023-08-17T17:34:35;99694.00;;;17.80
18782;BMP180;9519;51.890;8.970;2023-08-17T17:39:37;99696.00;;;17.80
18782;BMP180;9519;51.890;8.970;2023-08-17T17:44:39;99693.00;;;17.70
18782;BMP180;9519;51.890;8.970;2023-08-17T17:49:42;99699.00;;;17.70
18782;BMP180;9519;51.890;8.970;2023-08-17T17:54:44;99691.00;;;17.70
18782;BMP180;9519;51.890;8.970;2023-08-17T18:06:04;99680.00;;;17.70
18782;BMP180;9519;51.890;8.970;2023-08-17T18:11:06;99682.00;;;17.60
18782;BMP180;9519;51.890;8.970;2023-08-17T18:16:08;99681.00;;;17.70
18782;BMP180;9519;51.890;8.970;2023-08-17T18:21:12;99677.00;;;17.60
18782;BMP180;9519;51.890;8.970;2023-08-17T18:26:14;99676.00;;;17.60
18782;BMP180;9519;51.890;8.970;2023-08-17T18:31:16;99682.00;;;17.70
18782;BMP180;9519;51.890;8.970;2023-08-17T18:36:19;99690.00;;;17.60
18782;BMP180;9519;51.890;8.970;2023-08-17T18:41:21;99690.00;;;17.60
18782;BMP180;9519;51.890;8.970;2023-08-17T18:46:23;99698.00;;;17.60
18782;BMP180;9519;51.890;8.970;2023-08-17T18:51:27;99709.00;;;17.50
18782;BMP180;9519;51.890;8.970;2023-08-17T18:56:29;99705.00;;;17.50
18782;BMP180;9519;51.890;8.970;2023-08-17T19:01:31;99710.00;;;17.50
18782;BMP180;9519;51.890;8.970;2023-08-17T19:06:34;99722.00;;;17.50
18782;BMP180;9519;51.890;8.970;2023-08-17T19:11:36;99722.00;;;17.50
18782;BMP180;9519;51.890;8.970;2023-08-17T19:16:38;99727.00;;;17.40
18782;BMP180;9519;51.890;8.970;2023-08-17T19:21:42;99722.00;;;17.40
18782;BMP180;9519;51.890;8.970;2023-08-17T19:26:44;99726.00;;;17.40
18782;BMP180;9519;51.890;8.970;2023-08-17T19:31:46;99720.00;;;17.40
18782;BMP180;9519;51.890;8.970;2023-08-17T19:36:49;99719.00;;;17.40
18782;BMP180;9519;51.890;8.970;2023-08-17T19:41:51;99717.00;;;17.30
18782;BMP180;9519;51.890;8.970;2023-08-17T19:46:54;99720.00;;;17.30
18782;BMP180;9519;51.890;8.970;2023-08-17T19:51:57;99714.00;;;17.30
18782;BMP180;9519;51.890;8.970;2023-08-17T19:56:59;99704.00;;;17.30
18782;BMP180;9519;51.890;8.970;2023-08-17T20:02:01;99716.00;;;17.30
18782;BMP180;9519;51.890;8.970;2023-08-17T20:07:05;99718.00;;;17.30
18782;BMP180;9519;51.890;8.970;2023-08-17T20:12:07;99714.00;;;17.30
18782;BMP180;9519;51.890;8.970;2023-08-17T20:17:09;99717.00;;;17.40
18782;BMP180;9519;51.890;8.970;2023-08-17T20:22:13;99711.00;;;17.40
18782;BMP180;9519;51.890;8.970;2023-08-17T20:27:16;99709.00;;;17.40
18782;BMP180;9519;51.890;8.970;2023-08-17T20:32:17;99703.00;;;17.40
18782;BMP180;9519;51.890;8.970;2023-08-17T20:37:21;99703.00;;;17.40
18782;BMP180;9519;51.890;8.970;2023-08-17T20:42:23;99688.00;;;17.40
18782;BMP180;9519;51.890;8.970;2023-08-17T20:47:25;99695.00;;;17.30
18782;BMP180;9519;51.890;8.970;2023-08-17T20:52:28;99693.00;;;17.40
18782;BMP180;9519;51.890;8.970;2023-08-17T20:57:30;99683.00;;;17.30
18782;BMP180;9519;51.890;8.970;2023-08-17T21:02:33;99679.00;;;17.30
18782;BMP180;9519;51.890;8.970;2023-08-17T21:07:36;99700.00;;;17.30
18782;BMP180;9519;51.890;8.970;2023-08-17T21:12:38;99677.00;;;17.30
18782;BMP180;9519;51.890;8.970;2023-08-17T21:17:40;99676.00;;;17.40
18782;BMP180;9519;51.890;8.970;2023-08-17T21:22:47;99679.00;;;17.30
18782;BMP180;9519;51.890;8.970;2023-08-17T21:27:51;99686.00;;;17.30
18782;BMP180;9519;51.890;8.970;2023-08-17T21:32:53;99683.00;;;17.30
18782;BMP180;9519;51.890;8.970;2023-08-17T21:37:56;99685.00;;;17.30
18782;BMP180;9519;51.890;8.970;2023-08-17T21:42:58;99689.00;;;17.30
18782;BMP180;9519;51.890;8.970;2023-08-17T21:48:00;99693.00;;;17.20
18782;BMP180;9519;51.890;8.970;2023-08-17T21:53:04;99694.00;;;17.30
18782;BMP180;9519;51.890;8.970;2023-08-17T21:58:09;99694.00;;;17.20
18782;BMP180;9519;51.890;8.970;2023-08-17T22:03:12;99682.00;;;17.20
18782;BMP180;9519;51.890;8.970;2023-08-17T22:08:18;99673.00;;;17.20
18782;BMP180;9519;51.890;8.970;2023-08-17T22:13:20;99679.00;;;17.20
18782;BMP180;9519;51.890;8.970;2023-08-17T22:18:22;99669.00;;;17.20
18782;BMP180;9519;51.890;8.970;2023-08-17T22:23:25;99667.00;;;17.20
18782;BMP180;9519;51.890;8.970;2023-08-17T22:28:27;99664.00;;;17.20
18782;BMP180;9519;51.890;8.970;2023-08-17T22:33:33;99662.00;;;17.20
18782;BMP180;9519;51.890;8.970;2023-08-17T22:38:36;99675.00;;;17.10
18782;BMP180;9519;51.890;8.970;2023-08-17T22:43:38;99674.00;;;17.10
18782;BMP180;9519;51.890;8.970;2023-08-17T22:48:40;99677.00;;;17.10
18782;BMP180;9519;51.890;8.970;2023-08-17T22:53:45;99674.00;;;17.10
18782;BMP180;9519;51.890;8.970;2023-08-17T22:58:47;99681.00;;;17.10
18782;BMP180;9519;51.890;8.970;2023-08-17T23:03:49;99676.00;;;17.10
18782;BMP180;9519;51.890;8.970;2023-08-17T23:08:53;99682.00;;;17.10
18782;BMP180;9519;51.890;8.970;2023-08-17T23:13:55;99674.00;;;17.20
18782;BMP180;9519;51.890;8.970;2023-08-17T23:18:57;99673.00;;;17.20
18782;BMP180;9519;51.890;8.970;2023-08-17T23:24:00;99681.00;;;17.20
18782;BMP180;9519;51.890;8.970;2023-08-17T23:29:03;99675.00;;;17.20
18782;BMP180;9519;51.890;8.970;2023-08-17T23:34:05;99679.00;;;17.30
18782;BMP180;9519;51.890;8.970;2023-08-17T23:39:08;99675.00;;;17.30
18782;BMP180;9519;51.890;8.970;2023-08-17T23:44:16;99675.00;;;17.30
18782;BMP180;9519;51.890;8.970;2023-08-17T23:49:18;99678.00;;;17.30
18782;BMP180;9519;51.890;8.970;2023-08-17T23:54:22;99665.00;;;17.30
18782;BMP180;9519;51.890;8.970;2023-08-17T23:59:24;99660.00;;;17.30
